createdAt,value
2018-07-14T00:00:59.638Z,18.25
2018-07-14T00:01:59.637Z,18.33
2018-07-14T00:02:59.634Z,18.20
2018-07-14T00:03:59.642Z,18.18
2018-07-14T00:04:59.660Z,18.21
2018-07-14T00:05:59.641Z,18.23
2018-07-14T00:06:59.650Z,18.23
2018-07-14T00:07:59.664Z,18.27
2018-07-14T00:08:59.669Z,18.14
2018-07-14T00:09:59.671Z,18.11
2018-07-14T00:10:59.667Z,18.25
2018-07-14T00:11:59.677Z,18.26
2018-07-14T00:12:59.672Z,18.12
2018-07-14T00:13:59.676Z,18.17
2018-07-14T00:14:59.674Z,18.14
2018-07-14T00:15:59.705Z,18.21
2018-07-14T00:16:59.688Z,18.08
2018-07-14T00:19:59.696Z,18.08
2018-07-14T00:20:59.711Z,18.00
2018-07-14T00:22:00.800Z,18.00
2018-07-14T00:22:59.794Z,17.97
2018-07-14T00:23:59.720Z,18.05
2018-07-14T00:24:59.715Z,17.99
2018-07-14T00:25:59.705Z,17.97
2018-07-14T00:26:59.710Z,17.97
2018-07-14T00:27:59.711Z,17.96
2018-07-14T00:28:59.730Z,17.97
2018-07-14T00:29:59.734Z,17.92
2018-07-14T00:30:59.717Z,17.84
2018-07-14T00:31:59.722Z,17.86
2018-07-14T00:32:59.735Z,17.89
2018-07-14T00:33:59.741Z,17.95
2018-07-14T00:34:59.728Z,17.84
2018-07-14T00:35:59.758Z,17.89
2018-07-14T00:36:59.738Z,17.82
2018-07-14T00:37:59.774Z,17.79
2018-07-14T00:38:59.763Z,17.79
2018-07-14T00:39:59.758Z,17.75
2018-07-14T00:40:59.745Z,17.70
2018-07-14T00:41:59.755Z,17.64
2018-07-14T00:42:59.745Z,17.56
2018-07-14T00:43:59.765Z,17.63
2018-07-14T00:44:59.776Z,17.66
2018-07-14T00:45:59.776Z,17.64
2018-07-14T00:46:59.788Z,17.68
2018-07-14T00:47:59.765Z,17.71
2018-07-14T00:48:59.769Z,17.63
2018-07-14T00:49:59.786Z,17.62
2018-07-14T00:50:59.778Z,17.56
2018-07-14T00:51:59.787Z,17.58
2018-07-14T00:52:59.784Z,17.54
2018-07-14T00:53:59.782Z,17.68
2018-07-14T00:54:59.782Z,17.51
2018-07-14T00:55:59.787Z,17.70
2018-07-14T00:56:59.802Z,17.55
2018-07-14T00:57:59.791Z,17.43
2018-07-14T00:58:59.802Z,17.48
2018-07-14T00:59:59.805Z,17.52
2018-07-14T01:00:59.807Z,17.40
2018-07-14T01:01:59.843Z,17.48
2018-07-14T01:02:59.805Z,17.41
2018-07-14T01:03:59.827Z,17.52
2018-07-14T01:04:59.829Z,17.36
2018-07-14T01:05:59.843Z,17.34
2018-07-14T01:06:59.829Z,17.44
2018-07-14T01:07:59.824Z,17.40
2018-07-14T01:08:59.839Z,17.34
2018-07-14T01:09:59.832Z,17.43
2018-07-14T01:10:59.827Z,17.37
2018-07-14T01:11:59.837Z,17.30
2018-07-14T01:12:59.843Z,17.43
2018-07-14T01:14:00.310Z,17.44
2018-07-14T01:14:59.852Z,17.40
2018-07-14T01:15:59.877Z,17.46
2018-07-14T01:16:59.854Z,17.34
2018-07-14T01:17:59.850Z,17.33
2018-07-14T01:18:59.865Z,17.33
2018-07-14T01:19:59.859Z,17.28
2018-07-14T01:20:59.866Z,17.28
2018-07-14T01:21:59.867Z,17.22
2018-07-14T01:22:59.882Z,17.30
2018-07-14T01:23:59.869Z,17.30
2018-07-14T01:24:59.874Z,17.28
2018-07-14T01:25:59.879Z,17.26
2018-07-14T01:27:00.815Z,17.21
2018-07-14T01:27:59.884Z,17.25
2018-07-14T01:28:59.893Z,17.23
2018-07-14T01:29:59.900Z,17.14
2018-07-14T01:30:59.890Z,17.21
2018-07-14T01:31:59.896Z,17.14
2018-07-14T01:32:59.933Z,17.16
2018-07-14T01:33:59.895Z,17.16
2018-07-14T01:34:59.917Z,17.15
2018-07-14T01:35:59.909Z,17.15
2018-07-14T01:36:59.906Z,17.21
2018-07-14T01:37:59.927Z,17.16
2018-07-14T01:38:59.922Z,17.15
2018-07-14T01:39:59.933Z,17.07
2018-07-14T01:40:59.914Z,17.19
2018-07-14T01:41:59.920Z,17.08
2018-07-14T01:42:59.925Z,17.04
2018-07-14T01:43:59.925Z,17.04
2018-07-14T01:44:59.928Z,17.00
2018-07-14T01:45:59.918Z,16.97
2018-07-14T01:46:59.965Z,17.04
2018-07-14T01:47:59.946Z,16.97
2018-07-14T01:48:59.938Z,17.06
2018-07-14T01:49:59.948Z,17.01
2018-07-14T01:50:59.939Z,17.06
2018-07-14T01:51:59.947Z,16.88
2018-07-14T01:52:59.955Z,16.96
2018-07-14T01:53:59.952Z,16.86
2018-07-14T01:54:59.955Z,16.93
2018-07-14T01:56:00.828Z,16.93
2018-07-14T01:56:59.962Z,16.82
2018-07-14T01:57:59.967Z,16.82
2018-07-14T01:58:59.964Z,16.78
2018-07-14T01:59:59.966Z,16.75
2018-07-14T02:00:59.973Z,16.73
2018-07-14T02:01:59.996Z,16.85
2018-07-14T02:02:59.971Z,16.81
2018-07-14T02:03:59.983Z,16.82
2018-07-14T02:04:59.983Z,16.82
2018-07-14T02:05:59.973Z,16.79
2018-07-14T02:06:59.980Z,16.82
2018-07-14T02:08:00.058Z,16.68
2018-07-14T02:09:00.045Z,16.78
2018-07-14T02:09:59.994Z,16.75
2018-07-14T02:11:00.037Z,16.79
2018-07-14T02:12:00.006Z,16.71
2018-07-14T02:13:00.008Z,16.67
2018-07-14T02:14:00.025Z,16.71
2018-07-14T02:15:00.027Z,16.70
2018-07-14T02:16:00.018Z,16.76
2018-07-14T02:17:00.020Z,16.71
2018-07-14T02:18:00.835Z,16.79
2018-07-14T02:19:00.035Z,16.76
2018-07-14T02:20:00.024Z,16.73
2018-07-14T02:21:00.031Z,16.67
2018-07-14T02:22:00.027Z,16.63
2018-07-14T02:23:00.033Z,16.73
2018-07-14T02:24:00.033Z,16.66
2018-07-14T02:25:00.048Z,16.61
2018-07-14T02:26:00.042Z,16.64
2018-07-14T02:27:00.067Z,16.56
2018-07-14T02:28:00.042Z,16.58
2018-07-14T02:29:00.036Z,16.63
2018-07-14T02:30:00.065Z,16.63
2018-07-14T02:31:00.842Z,16.63
2018-07-14T02:32:00.057Z,16.57
2018-07-14T02:33:00.061Z,16.66
2018-07-14T02:34:00.076Z,16.57
2018-07-14T02:35:00.080Z,16.60
2018-07-14T02:36:00.080Z,16.57
2018-07-14T02:37:00.070Z,16.56
2018-07-14T02:38:00.074Z,16.63
2018-07-14T02:39:00.070Z,16.63
2018-07-14T02:40:00.085Z,16.61
2018-07-14T02:41:00.078Z,16.64
2018-07-14T02:42:00.084Z,16.49
2018-07-14T02:43:00.077Z,16.48
2018-07-14T02:44:00.101Z,16.52
2018-07-14T02:45:00.089Z,16.50
2018-07-14T02:46:00.084Z,16.46
2018-07-14T02:47:00.097Z,16.53
2018-07-14T02:48:00.122Z,16.45
2018-07-14T02:49:00.096Z,16.46
2018-07-14T02:50:00.111Z,16.42
2018-07-14T02:51:00.115Z,16.38
2018-07-14T02:52:00.115Z,16.38
2018-07-14T02:53:00.113Z,16.46
2018-07-14T02:54:00.114Z,16.35
2018-07-14T02:55:00.119Z,16.43
2018-07-14T02:56:00.129Z,16.39
2018-07-14T02:57:00.116Z,16.39
2018-07-14T02:58:00.148Z,16.42
2018-07-14T02:59:00.127Z,16.42
2018-07-14T03:00:00.127Z,16.48
2018-07-14T03:01:00.127Z,16.45
2018-07-14T03:02:00.143Z,16.42
2018-07-14T03:03:00.142Z,16.41
2018-07-14T03:04:00.141Z,16.41
2018-07-14T03:05:00.184Z,16.41
2018-07-14T03:06:00.147Z,16.39
2018-07-14T03:07:00.153Z,16.27
2018-07-14T03:08:00.157Z,16.31
2018-07-14T03:09:00.165Z,16.31
2018-07-14T03:10:00.163Z,16.39
2018-07-14T03:11:00.178Z,16.30
2018-07-14T03:12:00.226Z,16.27
2018-07-14T03:13:00.309Z,16.30
2018-07-14T03:14:00.172Z,16.39
2018-07-14T03:15:00.182Z,16.25
2018-07-14T03:16:00.176Z,16.33
2018-07-14T03:17:00.170Z,16.33
2018-07-14T03:18:00.179Z,16.30
2018-07-14T03:19:00.173Z,16.27
2018-07-14T03:20:00.184Z,16.17
2018-07-14T03:21:00.186Z,16.27
2018-07-14T03:22:00.212Z,16.33
2018-07-14T03:23:00.182Z,16.30
2018-07-14T03:24:00.201Z,16.30
2018-07-14T03:25:00.196Z,16.30
2018-07-14T03:26:00.192Z,16.42
2018-07-14T03:27:00.202Z,16.46
2018-07-14T03:28:00.217Z,16.39
2018-07-14T03:29:00.203Z,16.39
2018-07-14T03:30:00.207Z,16.38
2018-07-14T03:31:00.210Z,16.35
2018-07-14T03:32:00.208Z,16.25
2018-07-14T03:33:00.213Z,16.41
2018-07-14T03:34:00.219Z,16.38
2018-07-14T03:35:00.215Z,16.34
2018-07-14T03:36:00.223Z,16.48
2018-07-14T03:37:00.224Z,16.41
2018-07-14T03:38:00.220Z,16.33
2018-07-14T03:39:00.229Z,16.33
2018-07-14T03:40:00.246Z,16.28
2018-07-14T03:41:00.235Z,16.31
2018-07-14T03:42:00.317Z,16.35
2018-07-14T03:43:00.285Z,16.38
2018-07-14T03:44:00.259Z,16.45
2018-07-14T03:45:00.264Z,16.31
2018-07-14T03:46:00.244Z,16.38
2018-07-14T03:47:00.256Z,16.45
2018-07-14T03:48:00.259Z,16.46
2018-07-14T03:49:00.261Z,16.45
2018-07-14T03:50:00.252Z,16.58
2018-07-14T03:51:00.272Z,16.58
2018-07-14T03:52:00.284Z,16.63
2018-07-14T03:53:00.868Z,16.56
2018-07-14T03:54:00.274Z,16.60
2018-07-14T03:55:00.284Z,16.66
2018-07-14T03:56:00.273Z,16.71
2018-07-14T03:57:00.366Z,16.66
2018-07-14T03:58:00.276Z,16.50
2018-07-14T03:59:00.291Z,16.61
2018-07-14T04:00:00.288Z,16.50
2018-07-14T04:01:00.289Z,16.57
2018-07-14T04:02:00.287Z,16.66
2018-07-14T04:03:00.287Z,16.68
2018-07-14T04:04:00.291Z,16.68
2018-07-14T04:05:00.311Z,16.73
2018-07-14T04:06:00.304Z,16.75
2018-07-14T04:07:00.294Z,16.75
2018-07-14T04:08:00.301Z,16.76
2018-07-14T04:09:00.306Z,16.76
2018-07-14T04:10:00.323Z,16.78
2018-07-14T04:11:00.320Z,16.64
2018-07-14T04:12:00.316Z,16.78
2018-07-14T04:13:00.317Z,16.64
2018-07-14T04:14:00.326Z,16.66
2018-07-14T04:15:00.323Z,16.70
2018-07-14T04:16:00.324Z,16.73
2018-07-14T04:17:00.330Z,16.79
2018-07-14T04:18:00.326Z,16.73
2018-07-14T04:19:00.372Z,16.73
2018-07-14T04:20:00.329Z,16.86
2018-07-14T04:21:00.352Z,16.93
2018-07-14T04:22:00.339Z,16.88
2018-07-14T04:23:00.355Z,17.01
2018-07-14T04:24:00.344Z,16.88
2018-07-14T04:25:00.349Z,17.08
2018-07-14T04:26:00.354Z,16.88
2018-07-14T04:27:00.352Z,16.93
2018-07-14T04:28:00.362Z,16.86
2018-07-14T04:29:00.367Z,17.01
2018-07-14T04:30:00.358Z,17.03
2018-07-14T04:31:00.371Z,17.01
2018-07-14T04:32:00.409Z,17.04
2018-07-14T04:33:00.399Z,17.04
2018-07-14T04:34:00.391Z,17.08
2018-07-14T04:35:00.367Z,16.96
2018-07-14T04:36:00.374Z,16.98
2018-07-14T04:37:00.381Z,17.04
2018-07-14T04:38:00.384Z,16.97
2018-07-14T04:39:00.403Z,17.12
2018-07-14T04:40:00.393Z,17.08
2018-07-14T04:41:00.403Z,17.14
2018-07-14T04:42:00.397Z,17.11
2018-07-14T04:43:00.391Z,17.16
2018-07-14T04:44:00.394Z,17.12
2018-07-14T04:45:00.394Z,17.18
2018-07-14T04:46:00.409Z,17.23
2018-07-14T04:47:00.409Z,17.31
2018-07-14T04:48:00.428Z,17.40
2018-07-14T04:49:00.410Z,17.25
2018-07-14T04:50:00.415Z,17.40
2018-07-14T04:51:00.423Z,17.28
2018-07-14T04:52:00.425Z,17.15
2018-07-14T04:53:00.471Z,17.18
2018-07-14T04:54:00.431Z,17.18
2018-07-14T04:55:00.431Z,17.30
2018-07-14T04:56:00.425Z,17.38
2018-07-14T04:57:00.433Z,17.46
2018-07-14T04:58:00.462Z,17.14
2018-07-14T04:59:00.437Z,17.31
2018-07-14T05:00:00.449Z,17.43
2018-07-14T05:01:00.454Z,17.26
2018-07-14T05:02:00.450Z,17.33
2018-07-14T05:03:00.465Z,17.41
2018-07-14T05:04:00.447Z,17.46
2018-07-14T05:05:00.458Z,17.43
2018-07-14T05:06:00.480Z,17.43
2018-07-14T05:07:00.462Z,17.40
2018-07-14T05:08:00.461Z,17.46
2018-07-14T05:09:00.460Z,17.41
2018-07-14T05:10:01.396Z,17.40
2018-07-14T05:11:00.471Z,17.25
2018-07-14T05:12:00.476Z,17.55
2018-07-14T05:13:00.474Z,17.64
2018-07-14T05:14:00.486Z,17.77
2018-07-14T05:15:00.483Z,17.84
2018-07-14T05:16:00.489Z,17.72
2018-07-14T05:17:00.481Z,17.82
2018-07-14T05:18:00.509Z,17.92
2018-07-14T05:19:00.498Z,17.95
2018-07-14T05:20:00.493Z,18.17
2018-07-14T05:21:00.502Z,18.63
2018-07-14T05:22:00.490Z,19.11
2018-07-14T05:23:00.512Z,19.95
2018-07-14T05:24:00.512Z,20.23
2018-07-14T05:25:00.531Z,20.61
2018-07-14T05:26:00.508Z,20.79
2018-07-14T05:27:00.508Z,21.43
2018-07-14T05:28:00.617Z,21.49
2018-07-14T05:29:00.527Z,21.46
2018-07-14T05:30:00.522Z,21.79
2018-07-14T05:31:00.530Z,22.31
2018-07-14T05:32:00.530Z,22.43
2018-07-14T05:33:00.556Z,22.77
2018-07-14T05:34:00.545Z,22.35
2018-07-14T05:35:00.535Z,22.35
2018-07-14T05:36:00.567Z,22.10
2018-07-14T05:37:00.539Z,22.07
2018-07-14T05:38:00.540Z,22.14
2018-07-14T05:39:00.554Z,22.45
2018-07-14T05:40:00.552Z,22.83
2018-07-14T05:41:00.555Z,22.46
2018-07-14T05:42:00.576Z,22.45
2018-07-14T05:43:00.569Z,22.57
2018-07-14T05:44:00.614Z,22.52
2018-07-14T05:45:00.566Z,22.42
2018-07-14T05:46:00.572Z,22.83
2018-07-14T05:47:00.575Z,23.27
2018-07-14T05:48:00.582Z,23.32
2018-07-14T05:49:00.582Z,23.65
2018-07-14T05:50:00.598Z,23.91
2018-07-14T05:51:00.592Z,24.03
2018-07-14T05:52:00.651Z,24.16
2018-07-14T05:53:00.601Z,23.58
2018-07-14T05:54:00.607Z,22.97
2018-07-14T05:55:00.623Z,22.36
2018-07-14T05:56:00.620Z,23.05
2018-07-14T05:57:00.623Z,23.65
2018-07-14T05:58:00.638Z,23.31
2018-07-14T05:59:00.640Z,23.95
2018-07-14T06:00:00.646Z,23.85
2018-07-14T06:01:00.639Z,23.95
2018-07-14T06:02:00.651Z,23.48
2018-07-14T06:03:00.647Z,24.45
2018-07-14T06:04:00.697Z,24.61
2018-07-14T06:05:00.674Z,24.77
2018-07-14T06:06:00.675Z,24.22
2018-07-14T06:07:00.671Z,24.67
2018-07-14T06:08:00.674Z,24.81
2018-07-14T06:09:00.682Z,24.60
2018-07-14T06:10:00.694Z,24.50
2018-07-14T06:11:00.693Z,24.42
2018-07-14T06:12:00.734Z,24.61
2018-07-14T06:13:00.737Z,24.46
2018-07-14T06:14:00.723Z,24.08
2018-07-14T06:15:00.721Z,24.13
2018-07-14T06:16:00.733Z,23.35
2018-07-14T06:17:00.738Z,23.88
2018-07-14T06:18:00.765Z,24.31
2018-07-14T06:19:00.752Z,24.65
2018-07-14T06:20:00.768Z,24.27
2018-07-14T06:21:00.765Z,24.32
2018-07-14T06:22:00.762Z,24.09
2018-07-14T06:23:00.773Z,24.22
2018-07-14T06:24:00.780Z,24.53
2018-07-14T06:25:00.784Z,24.76
2018-07-14T06:26:00.789Z,25.10
2018-07-14T06:27:00.795Z,25.77
2018-07-14T06:28:00.816Z,25.58
2018-07-14T06:29:00.833Z,25.54
2018-07-14T06:30:00.817Z,25.99
2018-07-14T06:31:00.817Z,26.28
2018-07-14T06:32:00.920Z,25.58
2018-07-14T06:33:00.855Z,25.57
2018-07-14T06:34:00.854Z,25.62
2018-07-14T06:35:00.853Z,25.73
2018-07-14T06:36:00.862Z,25.82
2018-07-14T06:37:00.880Z,26.50
2018-07-14T06:38:00.879Z,26.51
2018-07-14T06:39:00.891Z,26.65
2018-07-14T06:40:00.891Z,26.70
2018-07-14T06:41:00.916Z,26.70
2018-07-14T06:42:00.902Z,27.22
2018-07-14T06:43:00.959Z,27.74
2018-07-14T06:44:00.919Z,28.30
2018-07-14T06:45:00.934Z,28.41
2018-07-14T06:46:00.954Z,28.49
2018-07-14T06:47:00.961Z,28.73
2018-07-14T06:48:00.957Z,28.89
2018-07-14T06:49:01.436Z,28.02
2018-07-14T06:50:00.977Z,28.31
2018-07-14T06:51:00.984Z,27.65
2018-07-14T06:52:01.007Z,28.02
2018-07-14T06:53:01.002Z,27.92
2018-07-14T06:54:01.009Z,28.09
2018-07-14T06:55:01.020Z,28.02
2018-07-14T06:56:01.029Z,27.60
2018-07-14T06:57:01.036Z,28.14
2018-07-14T06:58:01.047Z,28.11
2018-07-14T06:59:01.098Z,27.60
2018-07-14T07:00:01.073Z,27.31
2018-07-14T07:01:01.082Z,27.07
2018-07-14T07:02:01.093Z,27.37
2018-07-14T07:03:01.113Z,27.69
2018-07-14T07:04:01.107Z,27.82
2018-07-14T07:05:01.142Z,26.51
2018-07-14T07:06:01.130Z,26.82
2018-07-14T07:07:01.147Z,27.31
2018-07-14T07:08:01.168Z,27.70
2018-07-14T07:09:01.160Z,27.74
2018-07-14T07:10:01.203Z,27.60
2018-07-14T07:11:01.182Z,27.24
2018-07-14T07:12:01.232Z,27.55
2018-07-14T07:13:01.212Z,27.60
2018-07-14T07:14:01.218Z,27.99
2018-07-14T07:15:01.227Z,28.48
2018-07-14T07:16:01.240Z,28.95
2018-07-14T07:17:01.247Z,28.70
2018-07-14T07:18:01.254Z,28.44
2018-07-14T07:19:01.290Z,28.17
2018-07-14T07:20:01.284Z,28.30
2018-07-14T07:21:01.297Z,28.18
2018-07-14T07:22:01.317Z,28.70
2018-07-14T07:23:01.324Z,28.62
2018-07-14T07:24:01.371Z,28.54
2018-07-14T07:25:01.339Z,28.51
2018-07-14T07:26:01.347Z,28.24
2018-07-14T07:27:01.370Z,29.05
2018-07-14T07:28:01.392Z,29.24
2018-07-14T07:29:01.398Z,29.60
2018-07-14T07:30:01.404Z,28.92
2018-07-14T07:31:01.452Z,28.56
2018-07-14T07:32:01.459Z,28.88
2018-07-14T07:33:01.444Z,28.93
2018-07-14T07:34:01.497Z,29.27
2018-07-14T07:35:01.470Z,29.60
2018-07-14T07:36:01.474Z,29.34
2018-07-14T07:37:01.528Z,29.23
2018-07-14T07:38:01.497Z,28.18
2018-07-14T07:39:01.512Z,27.36
2018-07-14T07:40:01.527Z,27.82
2018-07-14T07:41:01.580Z,28.21
2018-07-14T07:42:01.572Z,28.30
2018-07-14T07:43:01.562Z,28.11
2018-07-14T07:44:01.607Z,27.97
2018-07-14T07:45:01.615Z,27.88
2018-07-14T07:46:01.612Z,27.66
2018-07-14T07:47:01.656Z,27.84
2018-07-14T07:48:01.632Z,28.74
2018-07-14T07:49:01.689Z,29.27
2018-07-14T07:50:01.665Z,29.43
2018-07-14T07:51:01.677Z,29.64
2018-07-14T07:52:01.714Z,29.78
2018-07-14T07:53:01.693Z,28.93
2018-07-14T07:54:01.773Z,28.95
2018-07-14T07:55:01.745Z,28.24
2018-07-14T07:56:01.732Z,28.14
2018-07-14T07:57:01.792Z,28.36
2018-07-14T07:58:01.782Z,28.89
2018-07-14T07:59:01.855Z,28.58
2018-07-14T08:00:01.789Z,28.54
2018-07-14T08:01:01.820Z,27.39
2018-07-14T08:02:01.816Z,27.50
2018-07-14T08:03:01.868Z,28.22
2018-07-14T08:04:01.841Z,28.62
2018-07-14T08:05:04.567Z,29.42
2018-07-14T08:06:01.872Z,29.55
2018-07-14T08:07:01.912Z,29.87
2018-07-14T08:08:01.929Z,29.53
2018-07-14T08:09:01.904Z,30.05
2018-07-14T08:10:01.979Z,30.27
2018-07-14T08:11:01.950Z,28.96
2018-07-14T08:12:01.951Z,28.73
2018-07-14T08:13:02.000Z,29.21
2018-07-14T08:14:02.026Z,29.41
2018-07-14T08:15:02.025Z,29.36
2018-07-14T08:16:02.040Z,28.89
2018-07-14T08:17:02.053Z,29.64
2018-07-14T08:18:02.050Z,28.96
2018-07-14T08:19:03.003Z,29.36
2018-07-14T08:20:02.074Z,29.65
2018-07-14T08:21:02.103Z,30.07
2018-07-14T08:22:02.102Z,30.42
2018-07-14T08:23:02.203Z,30.24
2018-07-14T08:24:02.153Z,30.24
2018-07-14T08:25:02.146Z,29.53
2018-07-14T08:26:02.175Z,29.09
2018-07-14T08:27:02.198Z,29.70
2018-07-14T08:28:02.202Z,29.87
2018-07-14T08:29:03.017Z,29.49
2018-07-14T08:30:02.242Z,29.83
2018-07-14T08:31:02.262Z,30.10
2018-07-14T08:32:02.254Z,30.20
2018-07-14T08:33:02.280Z,30.75
2018-07-14T08:34:02.284Z,30.57
2018-07-14T08:35:02.342Z,30.55
2018-07-14T08:36:02.327Z,30.64
2018-07-14T08:37:02.343Z,29.70
2018-07-14T08:38:02.419Z,29.61
2018-07-14T08:39:02.378Z,29.58
2018-07-14T08:40:02.406Z,29.37
2018-07-14T08:41:02.434Z,28.37
2018-07-14T08:42:02.469Z,28.40
2018-07-14T08:43:02.440Z,28.62
2018-07-14T08:44:02.477Z,28.67
2018-07-14T08:45:02.488Z,29.27
2018-07-14T08:46:02.506Z,29.74
2018-07-14T08:47:02.491Z,30.26
2018-07-14T08:48:02.573Z,30.65
2018-07-14T08:49:02.588Z,30.84
2018-07-14T08:50:02.554Z,31.20
2018-07-14T08:51:02.687Z,30.26
2018-07-14T08:52:02.587Z,30.67
2018-07-14T08:53:02.608Z,30.58
2018-07-14T08:54:02.615Z,30.15
2018-07-14T08:55:02.669Z,30.70
2018-07-14T08:56:02.647Z,31.21
2018-07-14T08:57:02.697Z,31.12
2018-07-14T08:58:02.733Z,30.31
2018-07-14T08:59:02.723Z,30.46
2018-07-14T09:00:02.766Z,30.64
2018-07-14T09:01:02.750Z,30.45
2018-07-14T09:02:02.768Z,29.97
2018-07-14T09:03:02.779Z,30.13
2018-07-14T09:04:02.827Z,30.05
2018-07-14T09:05:02.846Z,30.39
2018-07-14T09:06:02.826Z,30.95
2018-07-14T09:07:02.851Z,31.21
2018-07-14T09:08:02.893Z,31.38
2018-07-14T09:09:02.937Z,31.41
2018-07-14T09:10:02.900Z,31.06
2018-07-14T09:11:02.948Z,31.66
2018-07-14T09:12:02.946Z,31.76
2018-07-14T09:13:02.979Z,31.73
2018-07-14T09:14:03.017Z,31.61
2018-07-14T09:15:02.994Z,31.70
2018-07-14T09:16:03.011Z,31.61
2018-07-14T09:17:03.062Z,30.77
2018-07-14T09:18:03.041Z,30.64
2018-07-14T09:19:03.085Z,30.69
2018-07-14T09:20:03.107Z,30.34
2018-07-14T09:21:04.044Z,30.42
2018-07-14T09:22:03.139Z,30.67
2018-07-14T09:23:03.137Z,30.84
2018-07-14T09:24:03.157Z,31.01
2018-07-14T09:25:03.263Z,31.17
2018-07-14T09:26:03.206Z,31.19
2018-07-14T09:27:03.220Z,31.48
2018-07-14T09:28:03.313Z,31.95
2018-07-14T09:29:03.258Z,31.95
2018-07-14T09:30:03.286Z,31.68
2018-07-14T09:31:03.305Z,32.11
2018-07-14T09:32:03.361Z,31.68
2018-07-14T09:33:03.347Z,31.31
2018-07-14T09:34:03.368Z,31.68
2018-07-14T09:35:03.417Z,31.76
2018-07-14T09:36:03.426Z,31.65
2018-07-14T09:37:03.417Z,31.66
2018-07-14T09:38:03.543Z,32.07
2018-07-14T09:39:03.462Z,32.01
2018-07-14T09:40:03.528Z,30.82
2018-07-14T09:41:03.506Z,31.09
2018-07-14T09:42:03.538Z,30.67
2018-07-14T09:43:03.558Z,30.22
2018-07-14T09:44:03.609Z,30.42
2018-07-14T09:45:03.569Z,30.97
2018-07-14T09:46:03.634Z,31.21
2018-07-14T09:47:03.655Z,30.84
2018-07-14T09:48:03.645Z,31.44
2018-07-14T09:50:35.846Z,31.61
2018-07-14T09:51:36.965Z,31.29
2018-07-14T09:52:35.863Z,31.29
2018-07-14T09:53:35.895Z,31.54
2018-07-14T09:54:35.877Z,31.84
2018-07-14T09:55:35.915Z,31.80
2018-07-14T09:56:35.926Z,30.82
2018-07-14T09:57:35.931Z,30.57
2018-07-14T09:58:35.969Z,30.55
2018-07-14T09:59:35.982Z,30.55
2018-07-14T10:00:36.030Z,30.20
2018-07-14T10:01:36.021Z,29.87
2018-07-14T10:02:36.036Z,30.27
2018-07-14T10:03:36.138Z,30.95
2018-07-14T10:04:36.072Z,31.76
2018-07-14T10:05:36.119Z,31.28
2018-07-14T10:06:36.188Z,30.69
2018-07-14T10:07:36.177Z,30.22
2018-07-14T10:08:36.164Z,31.01
2018-07-14T10:09:36.180Z,31.14
2018-07-14T10:10:36.255Z,31.56
2018-07-14T10:11:36.237Z,31.80
2018-07-14T10:12:36.282Z,32.14
2018-07-14T10:13:36.776Z,32.26
2018-07-14T10:14:36.303Z,32.66
2018-07-14T10:15:36.368Z,32.77
2018-07-14T10:18:08.566Z,32.66
2018-07-14T10:19:08.499Z,31.68
2018-07-14T10:20:08.559Z,31.39
2018-07-14T10:21:08.552Z,31.66
2018-07-14T10:22:08.595Z,31.07
2018-07-14T10:23:08.607Z,31.25
2018-07-14T10:24:08.609Z,30.31
2018-07-14T10:25:08.691Z,30.82
2018-07-14T10:26:08.661Z,31.48
2018-07-14T10:27:08.687Z,31.17
2018-07-14T10:28:08.687Z,31.46
2018-07-14T10:29:08.797Z,32.03
2018-07-14T10:30:08.727Z,32.19
2018-07-14T10:31:08.779Z,32.01
2018-07-14T10:32:08.776Z,32.11
2018-07-14T10:33:08.822Z,32.55
2018-07-14T10:34:09.462Z,32.47
2018-07-14T10:35:08.826Z,32.55
2018-07-14T10:36:08.911Z,32.26
2018-07-14T10:37:08.883Z,32.22
2018-07-14T10:38:08.896Z,31.53
2018-07-14T10:39:09.037Z,30.99
2018-07-14T10:40:08.979Z,31.02
2018-07-14T10:41:08.952Z,30.84
2018-07-14T10:42:09.028Z,30.84
2018-07-14T10:43:08.984Z,31.34
2018-07-14T10:44:09.036Z,31.04
2018-07-14T10:45:09.052Z,30.29
2018-07-14T10:46:09.055Z,30.64
2018-07-14T10:47:09.061Z,31.20
2018-07-14T10:48:09.078Z,30.88
2018-07-14T10:49:09.106Z,30.97
2018-07-14T10:50:09.140Z,31.01
2018-07-14T10:51:09.173Z,30.88
2018-07-14T10:52:09.201Z,30.27
2018-07-14T10:53:09.169Z,29.64
2018-07-14T10:54:09.313Z,29.60
2018-07-14T10:55:09.219Z,29.76
2018-07-14T10:56:09.237Z,29.63
2018-07-14T10:57:09.267Z,29.57
2018-07-14T10:58:09.285Z,29.28
2018-07-14T10:59:09.299Z,29.37
2018-07-14T11:00:09.283Z,28.44
2018-07-14T11:01:09.307Z,28.43
2018-07-14T11:02:09.316Z,28.70
2018-07-14T11:03:09.379Z,28.30
2018-07-14T11:04:09.349Z,28.62
2018-07-14T11:05:09.402Z,28.56
2018-07-14T11:06:09.443Z,28.09
2018-07-14T11:07:09.394Z,28.14
2018-07-14T11:08:09.408Z,27.93
2018-07-14T11:09:09.451Z,27.57
2018-07-14T11:10:09.425Z,27.36
2018-07-14T11:11:09.462Z,27.60
2018-07-14T11:12:09.479Z,28.14
2018-07-14T11:13:09.528Z,27.93
2018-07-14T11:14:09.513Z,28.00
2018-07-14T11:15:09.486Z,27.96
2018-07-14T11:16:09.506Z,27.90
2018-07-14T11:17:09.545Z,27.67
2018-07-14T11:18:09.573Z,28.03
2018-07-14T11:19:10.480Z,28.31
2018-07-14T11:20:09.552Z,28.31
2018-07-14T11:21:09.587Z,28.43
2018-07-14T11:22:09.594Z,28.62
2018-07-14T11:23:09.605Z,28.83
2018-07-14T11:24:09.616Z,28.56
2018-07-14T11:25:09.679Z,28.24
2018-07-14T11:26:09.622Z,27.92
2018-07-14T11:27:09.637Z,27.99
2018-07-14T11:28:09.638Z,27.82
2018-07-14T11:29:09.760Z,27.65
2018-07-14T11:30:09.668Z,27.49
2018-07-14T11:31:09.667Z,27.31
2018-07-14T11:32:09.683Z,27.29
2018-07-14T11:33:09.687Z,27.55
2018-07-14T11:34:09.702Z,27.24
2018-07-14T11:35:09.729Z,27.50
2018-07-14T11:36:09.729Z,27.97
2018-07-14T11:37:09.728Z,28.21
2018-07-14T11:38:09.781Z,28.31
2018-07-14T11:39:10.503Z,28.03
2018-07-14T11:40:09.760Z,28.06
2018-07-14T11:41:09.766Z,27.94
2018-07-14T11:42:09.832Z,28.25
2018-07-14T11:43:09.786Z,28.46
2018-07-14T11:44:09.837Z,28.70
2018-07-14T11:45:09.806Z,28.71
2018-07-14T11:46:09.823Z,28.31
2018-07-14T11:47:09.868Z,28.59
2018-07-14T11:48:09.830Z,28.58
2018-07-14T11:49:10.500Z,28.33
2018-07-14T11:50:09.852Z,28.18
2018-07-14T11:51:09.870Z,28.37
2018-07-14T11:52:09.884Z,28.33
2018-07-14T11:53:09.883Z,28.58
2018-07-14T11:54:09.959Z,28.48
2018-07-14T11:55:09.915Z,28.66
2018-07-14T11:56:09.932Z,28.89
2018-07-14T11:57:09.941Z,28.17
2018-07-14T11:58:09.926Z,27.90
2018-07-14T11:59:09.945Z,27.46
2018-07-14T12:00:09.955Z,27.14
2018-07-14T12:01:09.951Z,26.94
2018-07-14T12:02:09.966Z,26.87
2018-07-14T12:03:09.983Z,26.76
2018-07-14T12:04:10.009Z,26.36
2018-07-14T12:05:09.996Z,26.91
2018-07-14T12:06:10.016Z,27.47
2018-07-14T12:07:10.057Z,28.00
2018-07-14T12:08:10.018Z,28.24
2018-07-14T12:09:10.030Z,28.56
2018-07-14T12:10:10.052Z,28.51
2018-07-14T12:11:10.043Z,28.04
2018-07-14T12:12:10.052Z,27.54
2018-07-14T12:13:10.061Z,27.49
2018-07-14T12:14:10.194Z,27.51
2018-07-14T12:15:10.086Z,27.39
2018-07-14T12:16:10.107Z,27.34
2018-07-14T12:17:10.105Z,27.34
2018-07-14T12:18:10.123Z,27.07
2018-07-14T12:19:10.184Z,26.89
2018-07-14T12:20:10.154Z,26.84
2018-07-14T12:21:10.137Z,26.77
2018-07-14T12:22:10.146Z,26.54
2018-07-14T12:23:10.148Z,26.66
2018-07-14T12:24:11.021Z,27.21
2018-07-14T12:25:10.168Z,27.41
2018-07-14T12:26:10.200Z,27.59
2018-07-14T12:27:10.204Z,27.88
2018-07-14T12:28:10.190Z,27.75
2018-07-14T12:29:10.206Z,27.55
2018-07-14T12:30:10.278Z,27.32
2018-07-14T12:31:10.213Z,27.18
2018-07-14T12:32:10.224Z,26.97
2018-07-14T12:33:10.234Z,26.75
2018-07-14T12:34:10.241Z,26.63
2018-07-14T12:35:10.264Z,26.84
2018-07-14T12:36:10.255Z,26.92
2018-07-14T12:37:10.287Z,27.27
2018-07-14T12:38:10.316Z,27.36
2018-07-14T12:39:10.277Z,27.57
2018-07-14T12:40:10.308Z,27.72
2018-07-14T12:41:10.294Z,27.92
2018-07-14T12:42:10.323Z,27.94
2018-07-14T12:43:10.382Z,27.92
2018-07-14T12:44:10.338Z,27.81
2018-07-14T12:45:10.332Z,27.81
2018-07-14T12:46:10.345Z,27.90
2018-07-14T12:47:11.035Z,27.81
2018-07-14T12:48:10.372Z,27.60
2018-07-14T12:49:10.359Z,27.72
2018-07-14T12:50:10.365Z,27.77
2018-07-14T12:51:10.376Z,27.90
2018-07-14T12:52:10.501Z,27.85
2018-07-14T12:53:10.410Z,27.69
2018-07-14T12:54:10.417Z,27.82
2018-07-14T12:55:10.401Z,27.87
2018-07-14T12:56:10.421Z,28.03
2018-07-14T12:57:10.456Z,27.63
2018-07-14T12:58:10.427Z,27.70